createdAt,value
2023-04-11T00:02:21.083Z,13.60
2023-04-11T00:04:47.665Z,13.50
2023-04-11T00:07:14.205Z,13.50
2023-04-11T00:09:40.719Z,13.50
2023-04-11T00:12:07.356Z,13.50
2023-04-11T00:14:33.833Z,13.50
2023-04-11T00:17:00.315Z,13.50
2023-04-11T00:19:26.840Z,13.60
2023-04-11T00:21:53.313Z,13.50
2023-04-11T00:24:19.798Z,13.50
2023-04-11T00:26:46.276Z,13.50
2023-04-11T00:29:12.729Z,13.50
2023-04-11T00:31:39.274Z,13.50
2023-04-11T00:34:05.764Z,13.50
2023-04-11T00:36:32.348Z,13.60
2023-04-11T00:38:58.921Z,13.50
2023-04-11T00:41:25.400Z,13.50
2023-04-11T00:43:51.887Z,13.50
2023-04-11T00:46:18.428Z,13.50
2023-04-11T00:48:44.970Z,13.50
2023-04-11T00:51:11.482Z,13.50
2023-04-11T00:56:28.800Z,13.50
2023-04-11T00:58:55.583Z,13.50
2023-04-11T01:01:25.379Z,13.50
2023-04-11T01:03:52.136Z,13.50
2023-04-11T01:06:18.692Z,13.50
2023-04-11T01:08:45.179Z,13.50
2023-04-11T01:11:11.670Z,13.50
2023-04-11T01:13:38.138Z,13.50
2023-04-11T01:16:04.656Z,13.50
2023-04-11T01:18:31.139Z,13.50
2023-04-11T01:20:57.634Z,13.50
2023-04-11T01:23:24.086Z,13.50
2023-04-11T01:25:50.566Z,13.50
2023-04-11T01:28:17.047Z,13.50
2023-04-11T01:30:43.569Z,13.50
2023-04-11T01:33:10.071Z,13.50
2023-04-11T01:35:36.618Z,13.50
2023-04-11T01:38:03.110Z,13.50
2023-04-11T01:40:29.583Z,13.50
2023-04-11T01:42:56.069Z,13.50
2023-04-11T01:45:24.590Z,13.50
2023-04-11T01:47:51.208Z,13.50
2023-04-11T01:50:17.775Z,13.50
2023-04-11T01:52:44.250Z,13.50
2023-04-11T01:55:10.720Z,13.50
2023-04-11T01:57:37.206Z,13.50
2023-04-11T02:00:03.688Z,13.50
2023-04-11T02:02:30.381Z,13.50
2023-04-11T02:04:56.959Z,13.50
2023-04-11T02:07:23.420Z,13.50
2023-04-11T02:09:49.942Z,13.50
2023-04-11T02:12:16.398Z,13.50
2023-04-11T02:14:42.908Z,13.50
2023-04-11T02:17:09.386Z,13.50
2023-04-11T02:19:35.883Z,13.50
2023-04-11T02:22:06.786Z,13.50
2023-04-11T02:24:33.274Z,13.50
2023-04-11T02:26:59.758Z,13.50
2023-04-11T02:29:26.255Z,13.50
2023-04-11T02:31:52.784Z,13.50
2023-04-11T02:34:19.316Z,13.50
2023-04-11T02:36:45.787Z,13.50
2023-04-11T02:39:12.279Z,13.50
2023-04-11T02:41:38.752Z,13.50
2023-04-11T02:44:05.223Z,13.50
2023-04-11T02:46:31.741Z,13.50
2023-04-11T02:48:58.297Z,13.50
2023-04-11T02:51:24.792Z,13.50
2023-04-11T02:53:51.238Z,13.50
2023-04-11T02:56:17.717Z,13.50
2023-04-11T02:58:44.196Z,13.50
2023-04-11T03:01:10.682Z,13.50
2023-04-11T03:03:37.261Z,13.50
2023-04-11T03:06:03.787Z,13.50
2023-04-11T03:08:30.255Z,13.50
2023-04-11T03:10:56.730Z,13.50
2023-04-11T03:13:23.248Z,13.40
2023-04-11T03:15:49.734Z,13.50
2023-04-11T03:18:16.226Z,13.50
2023-04-11T03:20:42.714Z,13.50
2023-04-11T03:23:09.161Z,13.50
2023-04-11T03:25:35.639Z,13.50
2023-04-11T03:28:02.097Z,13.50
2023-04-11T03:30:30.683Z,13.50
2023-04-11T03:32:57.180Z,13.40
2023-04-11T03:35:23.757Z,13.40
2023-04-11T03:37:50.265Z,13.50
2023-04-11T03:40:16.755Z,13.50
2023-04-11T03:42:43.235Z,13.40
2023-04-11T03:45:09.711Z,13.50
2023-04-11T03:47:36.191Z,13.40
2023-04-11T03:50:02.659Z,13.40
2023-04-11T03:52:29.143Z,13.40
2023-04-11T03:54:55.607Z,13.40
2023-04-11T03:57:22.093Z,13.40
2023-04-11T03:59:48.570Z,13.40
2023-04-11T04:02:15.187Z,13.40
2023-04-11T04:04:41.887Z,13.40
2023-04-11T04:07:08.438Z,13.40
2023-04-11T04:09:34.890Z,13.40
2023-04-11T04:12:01.353Z,13.40
2023-04-11T04:14:27.828Z,13.40
2023-04-11T04:16:54.360Z,13.40
2023-04-11T04:19:20.859Z,13.40
2023-04-11T04:21:48.723Z,13.40
2023-04-11T04:24:15.195Z,13.40
2023-04-11T04:26:41.642Z,13.40
2023-04-11T04:29:08.107Z,13.40
2023-04-11T04:31:34.862Z,13.40
2023-04-11T04:34:04.137Z,13.40
2023-04-11T04:36:30.597Z,13.40
2023-04-11T04:38:57.061Z,13.40
2023-04-11T04:41:23.565Z,13.40
2023-04-11T04:43:50.032Z,13.40
2023-04-11T04:46:16.646Z,13.40
2023-04-11T04:48:43.248Z,13.40
2023-04-11T04:51:09.726Z,13.40
2023-04-11T04:53:36.210Z,13.40
2023-04-11T04:56:02.672Z,13.40
2023-04-11T04:58:29.156Z,13.40
2023-04-11T05:01:00.986Z,13.40
2023-04-11T05:03:27.715Z,13.40
2023-04-11T05:05:54.436Z,13.40
2023-04-11T05:08:20.911Z,13.30
2023-04-11T05:10:47.404Z,13.40
2023-04-11T05:13:13.906Z,13.40
2023-04-11T05:15:40.376Z,13.40
2023-04-11T05:18:06.899Z,13.30
2023-04-11T05:20:33.370Z,13.30
2023-04-11T05:22:59.831Z,13.30
2023-04-11T05:25:26.313Z,13.40
2023-04-11T05:27:52.789Z,13.30
2023-04-11T05:30:19.272Z,13.30
2023-04-11T05:32:45.758Z,13.40
2023-04-11T05:35:12.252Z,13.30
2023-04-11T05:37:38.721Z,13.30
2023-04-11T05:40:05.169Z,13.30
2023-04-11T05:42:31.662Z,13.30
2023-04-11T05:44:58.133Z,13.30
2023-04-11T05:47:24.642Z,13.30
2023-04-11T05:49:51.167Z,13.30
2023-04-11T05:52:17.660Z,13.30
2023-04-11T05:54:44.121Z,13.40
2023-04-11T05:57:10.645Z,13.40
2023-04-11T05:59:37.116Z,13.30
2023-04-11T06:02:03.603Z,13.30
2023-04-11T06:04:30.242Z,13.30
2023-04-11T06:06:56.776Z,13.30
2023-04-11T06:09:24.790Z,13.30
2023-04-11T06:11:51.266Z,13.30
2023-04-11T06:14:17.750Z,13.30
2023-04-11T06:16:44.213Z,13.30
2023-04-11T06:19:10.674Z,13.30
2023-04-11T06:21:37.152Z,13.30
2023-04-11T06:24:03.629Z,13.30
2023-04-11T06:26:30.103Z,13.30
2023-04-11T06:28:56.570Z,13.30
2023-04-11T06:31:23.070Z,13.30
2023-04-11T06:33:49.557Z,13.30
2023-04-11T06:36:16.071Z,13.30
2023-04-11T06:38:42.596Z,13.30
2023-04-11T06:41:09.119Z,13.30
2023-04-11T06:43:35.603Z,13.30
2023-04-11T06:46:02.080Z,13.30
2023-04-11T06:48:30.840Z,13.30
2023-04-11T06:50:57.303Z,13.30
2023-04-11T06:53:23.780Z,13.30
2023-04-11T06:55:50.256Z,13.30
2023-04-11T06:58:17.837Z,13.30
2023-04-11T07:00:44.303Z,13.30
2023-04-11T07:03:10.880Z,13.30
2023-04-11T07:05:39.395Z,13.30
2023-04-11T07:08:06.156Z,13.30
2023-04-11T07:10:36.880Z,13.30
2023-04-11T07:13:03.387Z,13.30
2023-04-11T07:15:29.917Z,13.30
2023-04-11T07:17:56.428Z,13.30
2023-04-11T07:20:22.909Z,13.30
2023-04-11T07:22:49.418Z,13.30
2023-04-11T07:25:15.871Z,13.30
2023-04-11T07:27:42.363Z,13.30
2023-04-11T07:30:08.841Z,13.20
2023-04-11T07:32:35.356Z,13.20
2023-04-11T07:35:01.877Z,13.20
2023-04-11T07:37:28.377Z,13.20
2023-04-11T07:39:54.849Z,13.20
2023-04-11T07:42:21.315Z,13.30
2023-04-11T07:44:47.779Z,13.30
2023-04-11T07:47:14.241Z,13.20
2023-04-11T07:49:40.735Z,13.30
2023-04-11T07:52:07.196Z,13.30
2023-04-11T07:54:33.688Z,13.20
2023-04-11T07:57:00.169Z,13.20
2023-04-11T07:59:26.663Z,13.20
2023-04-11T08:01:53.213Z,13.20
2023-04-11T08:04:19.866Z,13.20
2023-04-11T08:06:46.623Z,13.20
2023-04-11T08:09:13.098Z,13.20
2023-04-11T08:11:39.566Z,13.20
2023-04-11T08:14:06.052Z,13.20
2023-04-11T08:16:32.553Z,13.20
2023-04-11T08:18:59.097Z,13.20
2023-04-11T08:21:25.586Z,13.20
2023-04-11T08:23:52.066Z,13.20
2023-04-11T08:26:19.129Z,13.20
2023-04-11T08:28:45.652Z,13.20
2023-04-11T08:31:12.198Z,13.20
2023-04-11T08:33:38.705Z,13.30
2023-04-11T08:36:05.252Z,13.20
2023-04-11T08:38:31.782Z,13.20
2023-04-11T08:40:58.239Z,13.20
2023-04-11T08:43:24.753Z,13.20
2023-04-11T08:45:51.237Z,13.30
2023-04-11T08:48:17.698Z,13.20
2023-04-11T08:50:44.199Z,13.30
2023-04-11T08:53:10.693Z,13.20
2023-04-11T08:55:37.186Z,13.20
2023-04-11T08:58:03.682Z,13.30
2023-04-11T09:00:30.174Z,13.20
2023-04-11T09:02:56.781Z,13.20
2023-04-11T09:05:23.324Z,13.20
2023-04-11T09:07:49.934Z,13.20
2023-04-11T09:10:16.457Z,13.30
2023-04-11T09:12:43.178Z,13.20
2023-04-11T09:15:09.643Z,13.20
2023-04-11T09:17:36.115Z,13.20
2023-04-11T09:20:02.613Z,13.20
2023-04-11T09:22:29.087Z,13.20
2023-04-11T09:24:55.561Z,13.30
2023-04-11T09:27:22.026Z,13.20
2023-04-11T09:29:48.522Z,13.30
2023-04-11T09:32:15.024Z,13.20
2023-04-11T09:34:42.615Z,13.20
2023-04-11T09:37:09.231Z,13.20
2023-04-11T09:39:35.730Z,13.20
2023-04-11T09:42:02.227Z,13.20
2023-04-11T09:44:28.680Z,13.20
2023-04-11T09:46:55.198Z,13.30
2023-04-11T09:49:21.708Z,13.20
2023-04-11T09:51:48.173Z,13.20
2023-04-11T09:54:14.637Z,13.30
2023-04-11T09:56:41.105Z,13.20
2023-04-11T09:59:07.577Z,13.20
2023-04-11T10:01:37.057Z,13.30
2023-04-11T10:04:03.602Z,13.20
2023-04-11T10:06:30.075Z,13.20
2023-04-11T10:08:56.622Z,13.20
2023-04-11T10:11:24.287Z,13.20
2023-04-11T10:13:50.893Z,13.20
2023-04-11T10:16:17.383Z,13.20
2023-04-11T10:18:43.849Z,13.30
2023-04-11T10:21:10.314Z,13.20
2023-04-11T10:23:36.776Z,13.20
2023-04-11T10:26:03.255Z,13.30
2023-04-11T10:28:29.716Z,13.20
2023-04-11T10:30:56.199Z,13.20
2023-04-11T10:33:22.652Z,13.20
2023-04-11T10:35:49.145Z,13.20
2023-04-11T10:38:15.627Z,13.20
2023-04-11T10:40:42.111Z,13.20
2023-04-11T10:43:08.567Z,13.20
2023-04-11T10:45:35.043Z,13.20
2023-04-11T10:48:01.621Z,13.20
2023-04-11T10:50:28.150Z,13.20
2023-04-11T10:52:54.619Z,13.20
2023-04-11T10:55:21.102Z,13.20
2023-04-11T10:57:47.564Z,13.20
2023-04-11T11:00:14.045Z,13.20
2023-04-11T11:02:40.998Z,13.20
2023-04-11T11:05:07.898Z,13.20
2023-04-11T11:07:34.351Z,13.20
2023-04-11T11:10:00.818Z,13.20
2023-04-11T11:12:27.319Z,13.30
2023-04-11T11:14:53.796Z,13.30
2023-04-11T11:17:20.318Z,13.20
2023-04-11T11:19:46.955Z,13.20
2023-04-11T11:22:13.502Z,13.20
2023-04-11T11:24:39.953Z,13.30
2023-04-11T11:27:06.422Z,13.30
2023-04-11T11:29:32.889Z,13.20
2023-04-11T11:31:59.404Z,13.30
2023-04-11T11:34:31.204Z,13.30
2023-04-11T11:36:57.690Z,13.20
2023-04-11T11:39:24.163Z,13.30
2023-04-11T11:41:50.624Z,13.30
2023-04-11T11:44:17.102Z,13.20
2023-04-11T11:46:43.619Z,13.30
2023-04-11T11:49:10.111Z,13.30
2023-04-11T11:51:36.581Z,13.30
2023-04-11T11:54:03.055Z,13.30
2023-04-11T11:56:29.541Z,13.30
2023-04-11T11:58:56.153Z,13.30
2023-04-11T12:01:22.749Z,13.30
2023-04-11T12:03:49.425Z,13.30
2023-04-11T12:06:16.042Z,13.30
2023-04-11T12:08:42.535Z,13.30
2023-04-11T12:11:09.034Z,13.30
2023-04-11T12:13:37.071Z,13.30
2023-04-11T12:16:03.567Z,13.30
2023-04-11T12:18:30.088Z,13.30
2023-04-11T12:20:56.536Z,13.30
2023-04-11T12:23:23.022Z,13.30
2023-04-11T12:25:49.513Z,13.30
2023-04-11T12:28:15.970Z,13.30
2023-04-11T12:30:42.459Z,13.30
2023-04-11T12:33:08.972Z,13.30
2023-04-11T12:35:35.458Z,13.30
2023-04-11T12:38:01.918Z,13.30
2023-04-11T12:40:28.412Z,13.30
2023-04-11T12:42:57.294Z,13.40
2023-04-11T12:45:24.193Z,13.40
2023-04-11T12:47:50.706Z,13.40
2023-04-11T12:50:17.202Z,13.40
2023-04-11T12:52:43.672Z,13.40
2023-04-11T12:55:10.232Z,13.40
2023-04-11T12:57:36.875Z,13.40
2023-04-11T13:00:03.418Z,13.40
2023-04-11T13:02:38.287Z,13.30
2023-04-11T13:05:09.190Z,13.30
2023-04-11T13:07:35.892Z,13.30
2023-04-11T13:10:02.370Z,13.40
2023-04-11T13:12:28.864Z,13.30
2023-04-11T13:14:55.327Z,13.40
2023-04-11T13:17:21.834Z,13.40
2023-04-11T13:19:48.345Z,13.40
2023-04-11T13:22:14.895Z,13.40
2023-04-11T13:24:41.355Z,13.40
2023-04-11T13:27:07.801Z,13.40
2023-04-11T13:29:37.127Z,13.40
2023-04-11T13:32:03.664Z,13.30
2023-04-11T13:34:31.158Z,13.30
2023-04-11T13:36:57.710Z,13.30
2023-04-11T13:39:24.232Z,13.30
2023-04-11T13:41:50.712Z,13.30
2023-04-11T13:44:17.187Z,13.40
2023-04-11T13:46:43.665Z,13.30
2023-04-11T13:49:10.136Z,13.40
2023-04-11T13:51:36.614Z,13.30
2023-04-11T13:54:03.087Z,13.40
2023-04-11T13:56:29.601Z,13.40
2023-04-11T13:59:07.292Z,13.40
2023-04-11T14:01:34.137Z,13.40
2023-04-11T14:04:01.625Z,13.40
2023-04-11T14:06:28.416Z,13.40
2023-04-11T14:08:54.889Z,13.40
2023-04-11T14:11:21.357Z,13.40
2023-04-11T14:13:47.833Z,13.40
2023-04-11T14:16:14.293Z,13.40
2023-04-11T14:18:43.225Z,13.40
2023-04-11T14:21:09.700Z,13.40
2023-04-11T14:23:36.183Z,13.40
2023-04-11T14:26:02.797Z,13.40
2023-04-11T14:28:29.265Z,13.50
2023-04-11T14:30:55.884Z,13.40
2023-04-11T14:33:22.580Z,13.50
2023-04-11T14:35:49.036Z,13.50
2023-04-11T14:38:15.600Z,13.50
2023-04-11T14:40:42.110Z,13.60
2023-04-11T14:43:08.612Z,13.60
2023-04-11T14:45:35.075Z,13.60
2023-04-11T14:48:01.573Z,13.70
2023-04-11T14:50:28.977Z,13.60
2023-04-11T14:52:55.585Z,13.60
2023-04-11T14:55:25.260Z,13.60
2023-04-11T14:57:51.744Z,13.60
2023-04-11T15:00:18.211Z,13.60
2023-04-11T15:02:44.708Z,13.60
2023-04-11T15:05:11.257Z,13.60
2023-04-11T15:07:37.734Z,13.60
2023-04-11T15:10:04.198Z,13.60
2023-04-11T15:12:30.694Z,13.60
2023-04-11T15:14:57.156Z,13.60
2023-04-11T15:17:25.237Z,13.60
2023-04-11T15:19:51.722Z,13.60
2023-04-11T15:22:18.199Z,13.60
2023-04-11T15:24:44.709Z,13.50
2023-04-11T15:27:11.184Z,13.60
2023-04-11T15:29:37.665Z,13.60
2023-04-11T15:32:04.174Z,13.60
2023-04-11T15:34:30.649Z,13.60
2023-04-11T15:36:57.126Z,13.60
2023-04-11T15:39:23.586Z,13.60
2023-04-11T15:41:50.069Z,13.60
2023-04-11T15:44:16.538Z,13.60
2023-04-11T15:46:43.022Z,13.60
2023-04-11T15:49:09.525Z,13.60
2023-04-11T15:51:35.969Z,13.60
2023-04-11T15:54:02.441Z,13.60
2023-04-11T15:56:28.908Z,13.60
2023-04-11T15:58:55.404Z,13.60
2023-04-11T16:01:21.916Z,13.60
2023-04-11T16:03:48.552Z,13.60
2023-04-11T16:06:15.187Z,13.60
2023-04-11T16:08:41.672Z,13.60
2023-04-11T16:11:08.143Z,13.60
2023-04-11T16:13:34.620Z,13.60
2023-04-11T16:16:01.146Z,13.60
2023-04-11T16:18:27.733Z,13.60
2023-04-11T16:20:54.198Z,13.60
2023-04-11T16:23:20.702Z,13.60
2023-04-11T16:25:47.168Z,13.60
2023-04-11T16:28:13.619Z,13.60
2023-04-11T16:30:40.096Z,13.60
2023-04-11T16:33:06.654Z,13.70
2023-04-11T16:35:33.146Z,13.60
2023-04-11T16:37:59.645Z,13.70
2023-04-11T16:40:26.122Z,13.70
2023-04-11T16:42:52.630Z,13.60
2023-04-11T16:45:19.112Z,13.60
2023-04-11T16:47:49.622Z,13.70
2023-04-11T16:50:16.134Z,13.70
2023-04-11T16:52:42.615Z,13.80
2023-04-11T16:55:09.095Z,13.80
2023-04-11T16:57:35.579Z,13.90
2023-04-11T17:00:02.123Z,13.90
2023-04-11T17:02:28.733Z,13.90
2023-04-11T17:04:55.285Z,13.90
2023-04-11T17:07:21.764Z,13.90
2023-04-11T17:09:48.246Z,13.90
2023-04-11T17:12:14.735Z,13.90
2023-04-11T17:14:41.240Z,13.90
2023-04-11T17:17:07.814Z,13.90
2023-04-11T17:19:34.359Z,13.90
2023-04-11T17:22:00.820Z,13.90
2023-04-11T17:24:27.312Z,13.90
2023-04-11T17:26:53.919Z,13.90
2023-04-11T17:29:20.404Z,13.90
2023-04-11T17:31:46.871Z,13.90
2023-04-11T17:34:19.499Z,13.90
2023-04-11T17:36:45.979Z,13.90
2023-04-11T17:39:12.532Z,13.90
2023-04-11T17:41:39.001Z,13.90
2023-04-11T17:44:05.470Z,13.90
2023-04-11T17:46:32.048Z,13.80
2023-04-11T17:48:58.532Z,13.80
2023-04-11T17:51:24.988Z,13.80
2023-04-11T17:53:51.474Z,13.80
2023-04-11T17:56:17.962Z,13.80
2023-04-11T17:58:44.447Z,13.80
2023-04-11T18:01:11.050Z,13.80
2023-04-11T18:03:37.851Z,13.80
2023-04-11T18:06:04.464Z,13.80
2023-04-11T18:08:49.146Z,13.80
2023-04-11T18:11:16.699Z,13.80
2023-04-11T18:13:43.204Z,13.80
2023-04-11T18:16:09.729Z,13.80
2023-04-11T18:18:36.255Z,13.80
2023-04-11T18:21:04.812Z,13.80
2023-04-11T18:23:32.220Z,13.70
2023-04-11T18:25:58.712Z,13.70
2023-04-11T18:28:25.180Z,13.70
2023-04-11T18:30:51.687Z,13.70
2023-04-11T18:33:19.613Z,13.70
2023-04-11T18:35:47.213Z,13.70
2023-04-11T18:38:19.447Z,13.70
2023-04-11T18:40:50.073Z,13.70
2023-04-11T18:43:20.546Z,13.70
2023-04-11T18:45:47.140Z,13.70
2023-04-11T18:48:13.641Z,13.70
2023-04-11T18:50:40.138Z,13.70
2023-04-11T18:53:09.830Z,13.70
2023-04-11T18:55:39.728Z,13.70
2023-04-11T18:58:09.203Z,13.70
2023-04-11T19:00:36.674Z,13.70
2023-04-11T19:03:03.475Z,13.70
2023-04-11T19:05:30.785Z,13.70
2023-04-11T19:08:01.472Z,13.70
2023-04-11T19:10:37.459Z,13.70
2023-04-11T19:13:03.936Z,13.70
2023-04-11T19:15:30.421Z,13.60
2023-04-11T19:17:56.939Z,13.70
2023-04-11T19:20:23.418Z,13.70
2023-04-11T19:22:49.894Z,13.60
2023-04-11T19:25:16.338Z,13.70
2023-04-11T19:27:42.869Z,13.70
2023-04-11T19:30:09.358Z,13.70
2023-04-11T19:32:35.850Z,13.70
2023-04-11T19:35:02.370Z,13.70
2023-04-11T19:37:28.877Z,13.60
2023-04-11T19:39:55.350Z,13.60
2023-04-11T19:42:21.842Z,13.70
2023-04-11T19:44:48.313Z,13.70
2023-04-11T19:47:14.820Z,13.70
2023-04-11T19:49:41.295Z,13.60
2023-04-11T19:52:07.790Z,13.60
2023-04-11T19:54:34.262Z,13.60
2023-04-11T19:57:00.760Z,13.60
2023-04-11T19:59:27.209Z,13.60
2023-04-11T20:01:53.837Z,13.60
2023-04-11T20:04:20.427Z,13.60
2023-04-11T20:06:47.047Z,13.60
2023-04-11T20:09:13.537Z,13.60
2023-04-11T20:11:40.004Z,13.60
2023-04-11T20:14:06.486Z,13.60
2023-04-11T20:16:32.990Z,13.60
2023-04-11T20:18:59.478Z,13.60
2023-04-11T20:21:25.940Z,13.60
2023-04-11T20:23:52.417Z,13.60
2023-04-11T20:26:18.874Z,13.60
2023-04-11T20:28:45.330Z,13.60
2023-04-11T20:31:11.818Z,13.60
2023-04-11T20:33:38.324Z,13.60
2023-04-11T20:36:04.803Z,13.60
2023-04-11T20:38:31.321Z,13.60
2023-04-11T20:40:57.834Z,13.60
2023-04-11T20:43:26.021Z,13.60
2023-04-11T20:45:53.082Z,13.60
2023-04-11T20:48:25.551Z,13.60
2023-04-11T20:50:52.034Z,13.60
2023-04-11T20:53:18.543Z,13.50
2023-04-11T20:55:49.605Z,13.50
2023-04-11T20:58:16.089Z,13.60
2023-04-11T21:00:42.536Z,13.50
2023-04-11T21:03:09.102Z,13.50
2023-04-11T21:05:35.631Z,13.50
2023-04-11T21:08:02.133Z,13.50
2023-04-11T21:10:28.612Z,13.50
2023-04-11T21:12:55.560Z,13.50
2023-04-11T21:15:22.027Z,13.50
2023-04-11T21:17:48.568Z,13.40
2023-04-11T21:20:15.084Z,13.50
2023-04-11T21:22:41.580Z,13.40
2023-04-11T21:25:08.065Z,13.50
2023-04-11T21:27:34.548Z,13.40
2023-04-11T21:30:01.040Z,13.40
2023-04-11T21:32:31.704Z,13.40
2023-04-11T21:35:01.580Z,13.40
2023-04-11T21:37:28.050Z,13.40
2023-04-11T21:39:54.541Z,13.40
2023-04-11T21:42:21.023Z,13.40
2023-04-11T21:44:47.508Z,13.40
2023-04-11T21:47:14.006Z,13.40
2023-04-11T21:49:40.484Z,13.40
2023-04-11T21:52:06.938Z,13.40
2023-04-11T21:54:37.617Z,13.40
2023-04-11T21:57:04.100Z,13.40
2023-04-11T21:59:31.612Z,13.40
2023-04-11T22:01:58.237Z,13.40
2023-04-11T22:04:25.087Z,13.30
2023-04-11T22:06:51.664Z,13.30
2023-04-11T22:09:18.171Z,13.30
2023-04-11T22:11:49.750Z,13.40
2023-04-11T22:14:16.236Z,13.40
2023-04-11T22:16:42.718Z,13.40
2023-04-11T22:19:09.211Z,13.40
2023-04-11T22:21:35.684Z,13.40
2023-04-11T22:24:02.213Z,13.40
2023-04-11T22:26:28.748Z,13.40
2023-04-11T22:28:55.221Z,13.40
2023-04-11T22:31:21.748Z,13.40
2023-04-11T22:33:48.250Z,13.40
2023-04-11T22:36:14.729Z,13.40
2023-04-11T22:38:43.716Z,13.40
2023-04-11T22:41:10.192Z,13.40
2023-04-11T22:43:36.705Z,13.40
2023-04-11T22:46:03.247Z,13.40
2023-04-11T22:48:29.794Z,13.40
2023-04-11T22:50:56.276Z,13.40
2023-04-11T22:53:22.763Z,13.40
2023-04-11T22:55:49.241Z,13.40
2023-04-11T22:58:15.738Z,13.50
2023-04-11T23:00:42.230Z,13.40
2023-04-11T23:03:08.788Z,13.40
2023-04-11T23:05:35.278Z,13.40
2023-04-11T23:08:01.803Z,13.40
2023-04-11T23:10:28.302Z,13.40
2023-04-11T23:12:54.791Z,13.40
2023-04-11T23:15:21.269Z,13.40
2023-04-11T23:17:47.751Z,13.40
2023-04-11T23:20:14.273Z,13.40
2023-04-11T23:22:40.751Z,13.40
2023-04-11T23:25:07.211Z,13.40
2023-04-11T23:27:33.709Z,13.40
2023-04-11T23:30:00.304Z,13.40
2023-04-11T23:32:26.820Z,13.40
2023-04-11T23:34:53.310Z,13.40
2023-04-11T23:37:19.783Z,13.40
2023-04-11T23:39:46.274Z,13.40
2023-04-11T23:42:12.771Z,13.40
2023-04-11T23:44:39.245Z,13.40
2023-04-11T23:47:07.644Z,13.40
2023-04-11T23:49:37.689Z,13.40
2023-04-11T23:52:04.165Z,13.40
2023-04-11T23:54:30.660Z,13.40
2023-04-11T23:56:57.152Z,13.40
2023-04-11T23:59:23.653Z,13.40
